Time;durP1;ratioP1;P1;durP2;ratioP2;P2;SDS_P1;SDS_P2;PMS_P1;PMS_P2;Temp;Humidity;BMP_temperature;BMP_pressure;BME280_temperature;BME280_humidity;BME280_pressure;Samples;Min_cycle;Max_cycle;Signal;HPM_P1;HPM_P2
2022/04/23 00:00:32;;;;;;;7.90;7.20;;;10.00;99.90;;;;;;490501;236;27817;-68
2022/04/23 00:02:32;;;;;;;10.63;7.50;;;10.00;99.90;;;;;;496659;239;27832;-68
2022/04/23 00:04:34;;;;;;;7.80;7.00;;;10.00;99.90;;;;;;496721;239;27641;-73
2022/04/23 00:06:35;;;;;;;8.40;6.60;;;10.00;99.90;;;;;;496647;239;27838;-68
2022/04/23 00:08:36;;;;;;;7.33;6.47;;;9.90;99.90;;;;;;496698;239;27658;-70
2022/04/23 00:10:37;;;;;;;9.30;7.67;;;9.90;99.90;;;;;;496668;239;27632;-67
2022/04/23 00:12:40;;;;;;;7.33;6.63;;;9.90;99.90;;;;;;496673;239;27789;-68
2022/04/23 00:14:40;;;;;;;8.23;7.33;;;9.80;99.90;;;;;;496644;239;27729;-71
2022/04/23 00:16:41;;;;;;;9.70;7.40;;;9.80;99.90;;;;;;496658;239;27718;-68
2022/04/23 00:18:43;;;;;;;8.83;7.40;;;9.80;99.90;;;;;;496693;239;27635;-70
2022/04/23 00:20:46;;;;;;;9.60;8.13;;;9.80;99.90;;;;;;496696;239;28187;-68
2022/04/23 00:22:45;;;;;;;9.27;8.23;;;9.70;99.90;;;;;;496490;239;28246;-69
2022/04/23 00:24:46;;;;;;;9.10;8.00;;;9.70;99.90;;;;;;496715;239;28249;-73
2022/04/23 00:26:47;;;;;;;9.77;8.33;;;9.80;99.90;;;;;;496641;239;28376;-69
2022/04/23 00:28:49;;;;;;;9.47;8.50;;;9.80;99.90;;;;;;496704;239;28298;-70
2022/04/23 00:30:51;;;;;;;9.37;7.53;;;9.80;99.90;;;;;;480577;235;27725;-68
2022/04/23 00:32:51;;;;;;;7.87;7.07;;;9.80;99.90;;;;;;475116;250;28023;-68
2022/04/23 00:34:52;;;;;;;8.43;7.63;;;9.80;99.90;;;;;;475210;250;28066;-73
2022/04/23 00:36:54;;;;;;;11.23;8.80;;;9.80;99.90;;;;;;475217;250;27898;-68
2022/04/23 00:38:55;;;;;;;9.67;8.67;;;9.70;99.90;;;;;;475191;250;27697;-70
2022/04/23 00:40:56;;;;;;;11.10;8.87;;;9.70;99.90;;;;;;475214;250;27956;-71
2022/04/23 00:42:58;;;;;;;11.50;9.40;;;9.70;99.90;;;;;;475163;250;27896;-68
2022/04/23 00:44:59;;;;;;;11.37;9.73;;;9.60;99.90;;;;;;475156;250;27941;-72
2022/04/23 00:47:00;;;;;;;10.27;9.10;;;9.60;99.90;;;;;;475203;250;28130;-68
2022/04/23 00:49:03;;;;;;;12.30;8.97;;;9.60;99.90;;;;;;475189;250;28028;-68
2022/04/23 00:51:02;;;;;;;11.80;9.70;;;9.50;99.90;;;;;;475131;250;27873;-69
2022/04/23 00:53:04;;;;;;;11.90;9.60;;;9.40;99.90;;;;;;475145;250;28021;-67
2022/04/23 00:55:05;;;;;;;14.17;10.37;;;9.40;99.90;;;;;;475097;250;28477;-71
2022/04/23 00:57:06;;;;;;;12.23;10.57;;;9.40;99.90;;;;;;475042;250;28522;-67
2022/04/23 00:59:08;;;;;;;11.47;9.97;;;9.30;99.90;;;;;;475055;250;27933;-68
2022/04/23 01:01:09;;;;;;;12.23;10.10;;;9.30;99.90;;;;;;474992;250;28044;-68
2022/04/23 01:03:12;;;;;;;12.83;10.53;;;9.30;99.90;;;;;;474983;250;28037;-69
2022/04/23 01:05:12;;;;;;;15.20;11.27;;;9.30;99.90;;;;;;475024;250;27889;-73
2022/04/23 01:07:13;;;;;;;15.70;11.83;;;9.20;99.90;;;;;;475159;250;27542;-68
2022/04/23 01:09:14;;;;;;;16.47;12.57;;;9.20;99.90;;;;;;475162;250;27939;-68
2022/04/23 01:11:15;;;;;;;16.60;12.00;;;9.20;99.90;;;;;;475220;250;27665;-68
2022/04/23 01:13:16;;;;;;;13.77;10.90;;;9.10;99.90;;;;;;475162;250;28273;-68
2022/04/23 01:15:17;;;;;;;14.13;12.17;;;9.10;99.90;;;;;;475185;250;28249;-71
2022/04/23 01:17:19;;;;;;;16.80;12.33;;;9.20;99.90;;;;;;475195;250;27880;-68
2022/04/23 01:19:22;;;;;;;20.50;12.50;;;9.10;99.90;;;;;;475183;250;28072;-69
2022/04/23 01:21:21;;;;;;;16.90;11.60;;;9.10;99.90;;;;;;475120;250;27912;-68
2022/04/23 01:23:22;;;;;;;15.90;12.50;;;9.10;99.90;;;;;;475207;250;27952;-68
2022/04/23 01:25:26;;;;;;;15.67;12.60;;;9.10;99.90;;;;;;475196;250;27533;-70
2022/04/23 01:27:31;;;;;;;19.20;13.10;;;9.10;99.90;;;;;;475088;250;27510;-68
2022/04/23 01:29:29;;;;;;;17.03;13.20;;;9.00;99.90;;;;;;474570;250;28063;-66
2022/04/23 01:31:30;;;;;;;13.70;11.40;;;9.00;99.90;;;;;;475149;250;27927;-66
2022/04/23 01:33:32;;;;;;;17.33;12.83;;;9.00;99.90;;;;;;475186;250;28155;-67
2022/04/23 01:35:33;;;;;;;18.77;13.37;;;9.00;99.90;;;;;;475193;250;28016;-69
2022/04/23 01:37:34;;;;;;;16.90;13.33;;;8.90;99.90;;;;;;475198;250;28479;-71
2022/04/23 01:39:35;;;;;;;16.70;13.30;;;8.90;99.90;;;;;;475191;250;28376;-68
2022/04/23 01:41:36;;;;;;;17.07;12.80;;;8.90;99.90;;;;;;475196;250;27562;-67
2022/04/23 01:43:38;;;;;;;16.70;12.70;;;8.80;99.90;;;;;;475207;250;28049;-68
2022/04/23 01:45:39;;;;;;;17.10;13.77;;;8.80;99.90;;;;;;474814;250;27996;-69
2022/04/23 01:47:40;;;;;;;17.03;13.70;;;8.80;99.90;;;;;;475206;250;27473;-69
2022/04/23 01:49:41;;;;;;;19.07;14.87;;;8.80;99.90;;;;;;480107;235;27792;-68
2022/04/23 01:51:43;;;;;;;17.80;13.27;;;8.80;99.90;;;;;;489367;242;27923;-68
2022/04/23 01:53:44;;;;;;;17.43;14.50;;;8.80;99.90;;;;;;489377;243;28057;-72
2022/04/23 01:55:45;;;;;;;18.30;13.73;;;8.80;99.90;;;;;;489360;243;27919;-68
2022/04/23 01:57:47;;;;;;;17.83;13.73;;;8.70;99.90;;;;;;489373;243;27734;-68
2022/04/23 01:59:48;;;;;;;17.00;13.60;;;8.70;99.90;;;;;;489361;243;28310;-68
2022/04/23 02:01:49;;;;;;;17.03;13.37;;;8.80;99.90;;;;;;489331;242;28166;-69
2022/04/23 02:03:51;;;;;;;18.80;14.73;;;8.70;99.90;;;;;;489361;243;28505;-72
2022/04/23 02:05:52;;;;;;;18.43;13.10;;;8.70;99.90;;;;;;489314;243;28016;-68
2022/04/23 02:07:53;;;;;;;18.20;13.80;;;8.70;99.90;;;;;;489365;243;27719;-69
2022/04/23 02:09:54;;;;;;;17.50;13.83;;;8.70;99.90;;;;;;489365;243;27880;-68
2022/04/23 02:11:56;;;;;;;17.70;13.80;;;8.70;99.90;;;;;;487996;243;27896;-69
2022/04/23 02:13:57;;;;;;;20.30;15.60;;;8.60;99.90;;;;;;478832;247;28086;-71
2022/04/23 02:15:58;;;;;;;18.93;14.33;;;8.60;99.90;;;;;;472333;251;27415;-68
2022/04/23 02:18:00;;;;;;;18.67;14.97;;;8.60;99.90;;;;;;476809;247;27488;-68
2022/04/23 02:20:00;;;;;;;20.50;15.17;;;8.70;99.90;;;;;;473519;247;28001;-68
2022/04/23 02:22:02;;;;;;;18.27;15.00;;;8.60;99.90;;;;;;472313;251;28343;-68
2022/04/23 02:24:04;;;;;;;22.13;14.80;;;8.60;99.90;;;;;;472341;251;28009;-72
2022/04/23 02:26:07;;;;;;;18.20;15.00;;;8.60;99.90;;;;;;472305;251;27962;-69
2022/04/23 02:28:08;;;;;;;19.30;14.47;;;8.60;99.90;;;;;;474028;247;27872;-66
2022/04/23 02:30:10;;;;;;;17.93;14.67;;;8.60;99.90;;;;;;485070;237;27953;-69
2022/04/23 02:32:11;;;;;;;17.07;14.00;;;8.60;99.90;;;;;;487517;243;27889;-73
2022/04/23 02:34:12;;;;;;;20.73;15.27;;;8.50;99.90;;;;;;483105;243;27880;-68
2022/04/23 02:36:15;;;;;;;19.03;14.63;;;8.50;99.90;;;;;;479124;248;27902;-70
2022/04/23 02:38:17;;;;;;;17.83;14.90;;;8.50;99.90;;;;;;479108;248;27713;-68
2022/04/23 02:40:16;;;;;;;19.30;15.17;;;8.60;99.90;;;;;;478919;248;28169;-66
2022/04/23 02:42:17;;;;;;;21.20;15.00;;;8.50;99.90;;;;;;484970;244;28931;-70
2022/04/23 02:44:19;;;;;;;18.57;14.07;;;8.50;99.90;;;;;;487235;243;28506;-67
2022/04/23 02:46:20;;;;;;;21.63;16.60;;;8.50;99.90;;;;;;487502;244;27921;-70
2022/04/23 02:48:21;;;;;;;18.10;15.17;;;8.50;99.90;;;;;;487499;243;27860;-68
2022/04/23 02:50:22;;;;;;;17.10;14.03;;;8.50;99.90;;;;;;487522;243;27778;-69
2022/04/23 02:52:23;;;;;;;20.23;15.40;;;8.50;99.90;;;;;;487531;244;27966;-73
2022/04/23 02:54:25;;;;;;;21.63;16.03;;;8.50;99.90;;;;;;487496;243;28039;-68
2022/04/23 02:56:26;;;;;;;21.40;16.77;;;8.50;99.90;;;;;;487494;243;27558;-70
2022/04/23 02:58:27;;;;;;;19.80;14.90;;;8.50;99.90;;;;;;484740;243;27967;-68
2022/04/23 03:00:28;;;;;;;17.60;12.53;;;8.50;99.90;;;;;;486979;244;28076;-68
2022/04/23 03:02:30;;;;;;;18.67;14.13;;;8.50;99.90;;;;;;479724;243;27984;-73
2022/04/23 03:04:31;;;;;;;20.37;14.00;;;8.50;99.90;;;;;;484480;244;27954;-67
2022/04/23 03:06:33;;;;;;;21.77;14.50;;;8.50;99.90;;;;;;487473;243;27969;-68
2022/04/23 03:08:33;;;;;;;17.10;13.93;;;8.50;99.90;;;;;;481068;244;28048;-68
2022/04/23 03:10:35;;;;;;;18.63;14.60;;;8.40;99.90;;;;;;479141;248;27778;-68
2022/04/23 03:12:39;;;;;;;22.60;16.77;;;8.40;99.90;;;;;;479164;248;27918;-70
2022/04/23 03:14:40;;;;;;;19.83;15.17;;;8.40;99.90;;;;;;479106;248;28381;-70
2022/04/23 03:16:41;;;;;;;20.50;15.10;;;8.40;99.90;;;;;;479157;248;27961;-67
2022/04/23 03:18:43;;;;;;;20.10;15.17;;;8.40;99.90;;;;;;479155;248;27798;-70
2022/04/23 03:20:44;;;;;;;21.50;15.13;;;8.40;99.90;;;;;;479139;248;27888;-68
2022/04/23 03:22:45;;;;;;;20.70;15.37;;;8.40;99.90;;;;;;479180;248;27395;-67
2022/04/23 03:24:46;;;;;;;19.23;15.00;;;8.40;99.90;;;;;;479188;248;28072;-68
2022/04/23 03:26:48;;;;;;;18.30;14.10;;;8.30;99.90;;;;;;479179;248;27930;-69
2022/04/23 03:28:49;;;;;;;23.37;15.00;;;8.30;99.90;;;;;;481608;244;27881;-68
2022/04/23 03:30:50;;;;;;;19.03;15.00;;;8.20;99.90;;;;;;486347;243;28889;-67
2022/04/23 03:32:51;;;;;;;17.07;14.60;;;8.20;99.90;;;;;;474688;249;28457;-68
2022/04/23 03:34:53;;;;;;;19.10;15.63;;;8.10;99.90;;;;;;477823;249;27817;-71
2022/04/23 03:36:54;;;;;;;19.20;14.23;;;8.10;99.90;;;;;;477831;248;27880;-68
2022/04/23 03:38:55;;;;;;;21.10;15.13;;;8.00;99.90;;;;;;482800;244;27984;-68
2022/04/23 03:40:56;;;;;;;19.50;15.73;;;8.00;99.90;;;;;;497087;237;27915;-68
2022/04/23 03:42:58;;;;;;;20.90;15.73;;;8.00;99.90;;;;;;491365;241;27761;-69
2022/04/23 03:44:59;;;;;;;20.60;15.37;;;8.00;99.90;;;;;;500635;237;27855;-71
2022/04/23 03:47:03;;;;;;;20.23;14.73;;;8.00;99.90;;;;;;500667;237;27823;-68
2022/04/23 03:49:01;;;;;;;19.70;14.27;;;8.00;99.90;;;;;;500269;237;28430;-68
2022/04/23 03:51:03;;;;;;;18.07;14.57;;;8.00;99.90;;;;;;500669;237;29146;-68
2022/04/23 03:53:04;;;;;;;20.70;15.17;;;8.00;99.90;;;;;;500678;237;27817;-67
2022/04/23 03:55:05;;;;;;;21.27;15.57;;;8.00;99.90;;;;;;500646;237;27847;-69
2022/04/23 03:57:06;;;;;;;20.30;14.20;;;8.00;99.90;;;;;;500628;236;27957;-68
2022/04/23 04:01:28;;;;;;;18.77;14.40;;;8.00;99.90;;;;;;475289;250;28015;-68
2022/04/23 04:03:30;;;;;;;17.10;14.07;;;7.90;99.90;;;;;;476116;250;28528;-67
2022/04/23 04:05:31;;;;;;;17.67;13.43;;;7.80;99.90;;;;;;475654;250;28292;-66
2022/04/23 04:07:35;;;;;;;17.73;13.90;;;7.80;99.90;;;;;;474854;250;28484;-67
2022/04/23 04:09:33;;;;;;;17.23;13.43;;;7.70;99.90;;;;;;477110;238;28235;-71
2022/04/23 04:13:54;;;;;;;19.70;14.10;;;7.70;99.90;;;;;;476812;249;28252;-67
2022/04/23 04:15:55;;;;;;;19.60;15.00;;;7.70;99.90;;;;;;495439;239;28314;-66
2022/04/23 04:17:57;;;;;;;21.77;15.47;;;7.70;99.90;;;;;;491377;241;28447;-67
2022/04/23 04:19:59;;;;;;;20.60;15.90;;;7.70;99.90;;;;;;486778;239;27933;-72
2022/04/23 04:22:02;;;;;;;21.17;15.70;;;7.70;99.90;;;;;;478416;246;27846;-71
2022/04/23 04:24:00;;;;;;;21.80;15.67;;;7.60;99.90;;;;;;478323;248;27747;-68
2022/04/23 04:26:02;;;;;;;25.30;15.17;;;7.60;99.90;;;;;;478459;248;28205;-72
2022/04/23 04:28:03;;;;;;;20.33;15.20;;;7.70;99.90;;;;;;478452;248;28425;-69
2022/04/23 04:30:04;;;;;;;21.70;15.80;;;7.70;99.90;;;;;;479690;234;28242;-69
2022/04/23 04:32:07;;;;;;;18.73;14.37;;;7.70;99.90;;;;;;479404;247;27538;-67
2022/04/23 04:34:07;;;;;;;19.70;14.30;;;7.70;99.90;;;;;;479754;247;27618;-67
2022/04/23 04:36:08;;;;;;;18.80;14.63;;;7.70;99.90;;;;;;479905;248;27895;-72
2022/04/23 04:38:09;;;;;;;18.93;14.53;;;7.70;99.90;;;;;;479853;248;27848;-69
2022/04/23 04:40:10;;;;;;;20.70;15.73;;;7.70;99.90;;;;;;474531;243;28056;-69
2022/04/23 04:42:12;;;;;;;19.40;15.03;;;7.70;99.90;;;;;;480958;247;27564;-68
2022/04/23 04:44:13;;;;;;;20.57;15.97;;;7.80;99.90;;;;;;480943;247;27990;-68
2022/04/23 04:46:14;;;;;;;19.30;14.77;;;7.80;99.90;;;;;;480940;247;28627;-72
2022/04/23 04:48:16;;;;;;;19.20;14.40;;;7.80;99.90;;;;;;480943;247;28368;-69
2022/04/23 04:50:17;;;;;;;18.37;13.83;;;7.90;99.90;;;;;;480988;233;27978;-69
2022/04/23 04:52:18;;;;;;;19.97;14.00;;;8.00;99.90;;;;;;478739;248;27695;-68
2022/04/23 04:54:21;;;;;;;20.17;14.00;;;8.10;99.90;;;;;;478687;247;28564;-68
2022/04/23 04:56:21;;;;;;;19.97;15.10;;;8.20;99.90;;;;;;478632;248;28284;-71
2022/04/23 04:58:22;;;;;;;16.80;13.60;;;8.20;99.90;;;;;;478743;247;27883;-68
2022/04/23 05:00:23;;;;;;;19.20;14.43;;;8.20;99.90;;;;;;477087;238;27674;-69
2022/04/23 05:02:24;;;;;;;17.20;13.43;;;8.30;99.90;;;;;;463704;256;28024;-68
2022/04/23 05:04:26;;;;;;;22.23;15.77;;;8.30;99.90;;;;;;467253;252;28138;-69
2022/04/23 05:06:27;;;;;;;15.37;12.80;;;8.40;99.90;;;;;;475702;250;28047;-70
2022/04/23 05:08:28;;;;;;;17.60;13.60;;;8.40;99.90;;;;;;463727;256;27676;-68
2022/04/23 05:10:29;;;;;;;16.70;13.67;;;8.40;99.90;;;;;;477388;237;28688;-69
2022/04/23 05:12:31;;;;;;;18.90;14.47;;;8.50;99.90;;;;;;485376;245;28322;-68
2022/04/23 05:14:32;;;;;;;17.77;14.00;;;8.50;99.90;;;;;;476674;247;28589;-68
2022/04/23 05:16:33;;;;;;;17.47;13.30;;;8.60;99.90;;;;;;485370;245;27768;-69
2022/04/23 05:18:34;;;;;;;19.50;14.90;;;8.60;99.90;;;;;;476696;249;27632;-68
2022/04/23 05:20:36;;;;;;;19.90;14.73;;;8.60;99.90;;;;;;490411;237;27858;-70
2022/04/23 05:22:37;;;;;;;21.40;15.50;;;8.70;99.90;;;;;;491773;242;27807;-68
2022/04/23 05:24:38;;;;;;;17.73;14.17;;;8.70;99.90;;;;;;491733;242;28483;-68
2022/04/23 05:26:39;;;;;;;17.63;13.87;;;8.80;99.90;;;;;;491747;242;28311;-69
2022/04/23 05:28:41;;;;;;;15.97;13.60;;;8.80;99.90;;;;;;491755;241;27930;-68
2022/04/23 05:30:49;;;;;;;17.13;13.90;;;8.90;99.90;;;;;;484032;239;27884;-69
2022/04/23 05:32:50;;;;;;;17.47;14.00;;;8.90;99.90;;;;;;481413;245;27844;-68
2022/04/23 05:34:52;;;;;;;17.87;13.47;;;8.90;99.90;;;;;;475217;250;27840;-70
2022/04/23 05:36:54;;;;;;;17.00;13.73;;;8.90;99.90;;;;;;481355;247;28357;-68
2022/04/23 05:38:55;;;;;;;17.33;14.13;;;8.90;99.90;;;;;;474040;247;28311;-69
2022/04/23 05:40:55;;;;;;;15.90;12.77;;;8.90;99.90;;;;;;480427;237;28086;-69
2022/04/23 05:43:00;;;;;;;18.70;14.20;;;9.00;99.90;;;;;;480440;246;27929;-70
2022/04/23 05:45:01;;;;;;;18.40;14.20;;;9.00;99.90;;;;;;475547;249;27950;-69
2022/04/23 05:47:02;;;;;;;17.33;13.23;;;9.00;99.90;;;;;;471833;251;28270;-68
2022/04/23 05:49:04;;;;;;;18.83;13.97;;;9.00;99.90;;;;;;475549;249;29375;-68
2022/04/23 05:51:05;;;;;;;14.70;12.57;;;9.00;99.90;;;;;;494111;235;28374;-68
2022/04/23 05:53:06;;;;;;;17.50;13.40;;;9.00;99.90;;;;;;494748;240;27855;-70
2022/04/23 05:55:08;;;;;;;17.43;14.17;;;9.00;99.90;;;;;;494755;240;28067;-69
2022/04/23 05:57:09;;;;;;;18.27;13.20;;;9.00;99.90;;;;;;494688;240;28175;-70
2022/04/23 06:01:10;;;;;;;14.93;12.57;;;9.10;99.90;;;;;;487067;233;27973;-73
2022/04/23 06:03:12;;;;;;;15.80;12.80;;;9.10;99.90;;;;;;484566;245;27514;-68
2022/04/23 06:05:13;;;;;;;14.30;12.03;;;9.20;99.90;;;;;;484585;245;28350;-69
2022/04/23 06:07:14;;;;;;;14.63;12.30;;;9.20;99.90;;;;;;484560;245;28284;-68
2022/04/23 06:11:36;;;;;;;12.37;10.40;;;9.30;99.90;;;;;;482910;246;28001;-69
2022/04/23 06:13:37;;;;;;;15.07;12.07;;;9.50;99.90;;;;;;482854;245;28525;-70
2022/04/23 06:15:38;;;;;;;13.67;11.33;;;9.50;99.90;;;;;;482903;246;28019;-70
2022/04/23 06:17:40;;;;;;;11.47;9.63;;;9.60;99.90;;;;;;482906;246;28140;-68
2022/04/23 06:19:41;;;;;;;13.83;11.60;;;9.70;99.90;;;;;;483396;235;28812;-71
2022/04/23 06:21:42;;;;;;;14.17;12.20;;;9.70;99.90;;;;;;467388;254;27948;-70
2022/04/23 06:23:43;;;;;;;12.07;10.30;;;9.60;99.90;;;;;;467355;254;27961;-69
2022/04/23 06:25:45;;;;;;;13.77;11.63;;;9.70;99.90;;;;;;467303;254;27834;-73
2022/04/23 06:27:46;;;;;;;12.40;10.37;;;9.70;99.90;;;;;;467319;254;27996;-68
2022/04/23 06:29:47;;;;;;;13.67;12.00;;;9.80;99.90;;;;;;468708;242;28413;-70
2022/04/23 06:31:48;;;;;;;12.27;10.90;;;9.70;99.90;;;;;;480610;245;28442;-69
2022/04/23 06:33:51;;;;;;;14.07;11.30;;;9.90;99.90;;;;;;480279;245;27921;-70
2022/04/23 06:35:51;;;;;;;15.23;12.60;;;10.00;99.90;;;;;;480559;247;27982;-72
2022/04/23 06:37:54;;;;;;;14.27;12.00;;;10.00;99.90;;;;;;480607;245;27891;-69
2022/04/23 06:39:54;;;;;;;13.97;12.40;;;10.10;99.90;;;;;;481103;244;28031;-69
2022/04/23 06:41:55;;;;;;;12.80;11.47;;;10.20;99.90;;;;;;484858;245;27981;-69
2022/04/23 06:43:56;;;;;;;15.20;12.57;;;10.20;99.90;;;;;;484865;244;28056;-69
2022/04/23 06:45:59;;;;;;;14.73;12.67;;;10.20;99.90;;;;;;483453;245;28455;-72
2022/04/23 06:48:04;;;;;;;12.63;11.00;;;10.20;99.90;;;;;;485311;243;28692;-69
2022/04/23 06:50:00;;;;;;;15.07;10.80;;;10.30;99.90;;;;;;482066;237;28234;-69
2022/04/23 06:52:01;;;;;;;13.80;11.27;;;10.50;99.90;;;;;;476223;250;28009;-68
2022/04/23 06:54:02;;;;;;;13.03;11.70;;;10.50;99.90;;;;;;476316;250;28127;-68
2022/04/23 06:56:04;;;;;;;11.53;10.17;;;10.50;99.90;;;;;;476256;249;28162;-72
2022/04/23 06:58:05;;;;;;;11.33;10.17;;;10.70;99.90;;;;;;476299;250;28030;-69
2022/04/23 07:00:06;;;;;;;15.43;12.73;;;10.80;99.90;;;;;;482650;234;28204;-69
2022/04/23 07:02:08;;;;;;;12.20;10.90;;;10.50;99.90;;;;;;483304;246;29402;-69
2022/04/23 07:04:09;;;;;;;11.47;9.67;;;10.50;99.90;;;;;;463815;256;28892;-69
2022/04/23 07:06:11;;;;;;;13.20;10.63;;;10.70;99.90;;;;;;483286;246;28337;-71
2022/04/23 07:08:12;;;;;;;12.10;10.53;;;10.70;99.90;;;;;;464104;256;28286;-70
2022/04/23 07:10:13;;;;;;;9.90;8.90;;;10.70;99.90;;;;;;476147;235;28718;-69
2022/04/23 07:12:15;;;;;;;9.93;9.00;;;10.90;99.90;;;;;;492245;241;28777;-72
2022/04/23 07:14:15;;;;;;;11.40;9.97;;;10.90;99.90;;;;;;494312;240;28837;-68
2022/04/23 07:16:17;;;;;;;11.93;10.57;;;10.80;99.90;;;;;;491836;241;28238;-70
2022/04/23 07:18:18;;;;;;;11.57;10.03;;;10.80;99.90;;;;;;494265;240;28175;-69
2022/04/23 07:20:19;;;;;;;14.80;12.27;;;10.60;99.90;;;;;;491195;237;28279;-70
2022/04/23 07:22:20;;;;;;;13.00;11.57;;;10.60;99.90;;;;;;483238;246;28384;-73
2022/04/23 07:24:22;;;;;;;12.27;11.07;;;10.70;99.90;;;;;;483213;246;28671;-69
2022/04/23 07:26:23;;;;;;;12.53;10.20;;;10.70;99.90;;;;;;485130;245;28593;-69
2022/04/23 07:28:25;;;;;;;11.37;9.93;;;10.80;99.90;;;;;;484149;245;28167;-70
2022/04/23 07:30:26;;;;;;;13.00;11.03;;;10.90;99.90;;;;;;480447;240;28362;-69
2022/04/23 07:32:27;;;;;;;13.47;12.03;;;10.80;99.90;;;;;;488151;243;28222;-70
2022/04/23 07:39:07;;;;;;;11.87;10.67;;;10.70;99.90;;;;;;486138;244;28164;-69
2022/04/23 07:41:09;;;;;;;11.93;10.43;;;10.90;99.90;;;;;;475386;240;28811;-69
2022/04/23 07:43:13;;;;;;;11.27;10.10;;;11.00;99.90;;;;;;490459;242;28841;-69
2022/04/23 07:45:14;;;;;;;13.10;11.70;;;11.10;99.90;;;;;;483073;245;28267;-70
2022/04/23 07:47:15;;;;;;;16.53;12.70;;;10.70;99.90;;;;;;483090;246;28137;-73
2022/04/23 07:51:37;;;;;;;12.40;11.10;;;10.70;99.90;;;;;;461281;258;29642;-69
2022/04/23 07:53:38;;;;;;;12.83;11.43;;;10.90;99.90;;;;;;469050;253;28802;-71
2022/04/23 07:55:40;;;;;;;12.37;10.90;;;10.90;99.90;;;;;;460822;257;28338;-71
2022/04/23 07:57:41;;;;;;;11.80;9.97;;;10.80;99.90;;;;;;461218;257;28180;-68
2022/04/23 07:59:42;;;;;;;11.73;10.53;;;11.00;99.90;;;;;;460495;257;28346;-69
2022/04/23 08:01:43;;;;;;;11.30;10.10;;;10.90;99.90;;;;;;469019;253;28700;-68
2022/04/23 08:03:44;;;;;;;12.03;10.53;;;11.00;99.90;;;;;;460875;257;28425;-69
2022/04/23 08:05:46;;;;;;;11.93;10.10;;;11.00;99.90;;;;;;469018;253;28864;-69
2022/04/23 08:07:47;;;;;;;13.40;11.77;;;11.20;99.90;;;;;;460879;257;28900;-68
2022/04/23 08:09:48;;;;;;;11.83;10.53;;;11.00;99.90;;;;;;469743;236;28184;-68
2022/04/23 08:11:49;;;;;;;13.63;10.93;;;11.00;99.90;;;;;;492209;241;28232;-68
2022/04/23 08:13:51;;;;;;;12.60;11.20;;;10.90;99.90;;;;;;496179;239;28195;-69
2022/04/23 08:15:52;;;;;;;12.27;11.00;;;10.90;99.90;;;;;;496077;239;28198;-71
2022/04/23 08:17:54;;;;;;;11.90;9.97;;;11.10;99.90;;;;;;496228;239;28109;-68
2022/04/23 08:19:55;;;;;;;12.07;10.33;;;11.20;99.90;;;;;;492357;237;28222;-68
2022/04/23 08:21:56;;;;;;;10.93;9.80;;;11.20;99.90;;;;;;499740;238;28431;-69
2022/04/23 08:23:58;;;;;;;10.37;9.27;;;11.40;99.90;;;;;;491114;240;28205;-69
2022/04/23 08:26:00;;;;;;;16.77;11.70;;;11.50;99.90;;;;;;491056;241;29039;-69
2022/04/23 08:32:22;;;;;;;12.10;10.13;;;11.30;99.90;;;;;;490529;242;28834;-69
2022/04/23 08:34:23;;;;;;;12.30;10.20;;;11.40;99.90;;;;;;493632;240;28270;-69
2022/04/23 08:36:26;;;;;;;11.90;10.70;;;11.50;99.90;;;;;;484225;245;28186;-68
2022/04/23 08:38:26;;;;;;;13.33;11.27;;;11.40;99.90;;;;;;490674;242;28475;-68
2022/04/23 08:40:31;;;;;;;13.10;10.83;;;11.30;99.90;;;;;;481081;238;29049;-69
2022/04/23 08:42:31;;;;;;;11.93;9.90;;;11.30;99.90;;;;;;473322;250;29807;-68
2022/04/23 08:44:29;;;;;;;12.70;10.33;;;11.30;99.90;;;;;;473589;251;28574;-68
2022/04/23 08:46:31;;;;;;;12.03;10.73;;;11.50;99.90;;;;;;473669;251;28412;-70
2022/04/23 08:48:32;;;;;;;12.03;10.47;;;11.70;99.90;;;;;;473774;250;28230;-69
2022/04/23 08:50:33;;;;;;;11.73;10.53;;;11.70;99.90;;;;;;486373;234;28524;-69
2022/04/23 08:52:34;;;;;;;12.30;10.83;;;11.60;99.90;;;;;;493219;241;28389;-68
2022/04/23 08:54:36;;;;;;;11.67;10.47;;;11.50;99.90;;;;;;493209;241;28839;-68
2022/04/23 08:56:37;;;;;;;10.50;9.40;;;11.40;99.90;;;;;;493156;241;28870;-71
2022/04/23 08:58:39;;;;;;;10.20;9.20;;;11.50;99.90;;;;;;493236;240;28505;-68
2022/04/23 09:00:40;;;;;;;13.93;10.40;;;11.50;99.90;;;;;;487032;238;28847;-68
2022/04/23 09:02:42;;;;;;;9.30;8.40;;;11.60;99.90;;;;;;483749;241;28370;-69
2022/04/23 09:04:44;;;;;;;9.53;8.60;;;11.90;99.90;;;;;;483794;245;28447;-69
2022/04/23 09:06:45;;;;;;;9.17;8.27;;;12.00;99.90;;;;;;483783;246;28854;-72
2022/04/23 09:08:46;;;;;;;8.33;7.53;;;12.20;99.90;;;;;;483795;246;28742;-70
2022/04/23 09:10:48;;;;;;;7.87;7.17;;;12.50;99.90;;;;;;492877;233;28779;-69
2022/04/23 09:12:51;;;;;;;8.83;8.00;;;;;;;;;;496449;239;28694;-69
2022/04/23 09:14:51;;;;;;;8.87;8.07;;;12.40;99.90;;;;;;492230;241;26640;-70
2022/04/23 09:23:41;;;;;;;11.80;7.60;;;12.10;99.90;;;;;;477344;249;28252;-69
2022/04/23 09:25:42;;;;;;;8.30;7.50;;;12.10;99.90;;;;;;477339;249;28818;-69
2022/04/23 09:27:43;;;;;;;7.53;6.80;;;12.20;99.90;;;;;;477344;249;28227;-69
2022/04/23 09:29:45;;;;;;;6.53;5.93;;;12.50;99.90;;;;;;473453;249;36234;-68
2022/04/23 09:31:46;;;;;;;8.07;7.27;;;12.30;99.90;;;;;;477379;248;27616;-71
2022/04/23 09:33:56;;;;;;;7.03;6.33;;;12.30;99.90;;;;;;477388;249;28463;-69
2022/04/23 09:35:48;;;;;;;6.53;5.93;;;12.50;99.90;;;;;;477018;249;28451;-69
2022/04/23 09:40:09;;;;;;;6.43;5.30;;;12.60;99.90;;;;;;477371;249;28479;-69
2022/04/23 09:42:11;;;;;;;6.63;5.93;;;12.40;99.90;;;;;;477358;249;28544;-69
2022/04/23 09:44:12;;;;;;;6.33;5.73;;;12.60;99.90;;;;;;480721;246;28544;-73
2022/04/23 09:46:13;;;;;;;5.87;5.30;;;12.50;99.90;;;;;;472989;251;28428;-69
2022/04/23 09:48:17;;;;;;;6.10;5.50;;;12.50;99.90;;;;;;472907;250;28869;-70
2022/04/23 09:50:19;;;;;;;5.37;4.87;;;12.60;99.90;;;;;;479716;247;28981;-69
2022/04/23 09:52:20;;;;;;;4.87;4.37;;;12.90;99.90;;;;;;483806;245;28219;-69
2022/04/23 09:54:21;;;;;;;5.73;5.13;;;13.20;99.90;;;;;;479196;248;28576;-71
2022/04/23 09:56:22;;;;;;;5.60;5.10;;;13.00;99.90;;;;;;479808;248;28642;-74
2022/04/23 09:58:24;;;;;;;5.43;4.93;;;12.80;99.90;;;;;;483831;246;28407;-70
2022/04/23 10:00:25;;;;;;;5.33;4.83;;;13.20;99.90;;;;;;479239;248;28669;-70
2022/04/23 10:02:26;;;;;;;5.20;4.70;;;13.50;99.90;;;;;;479783;248;28939;-70
2022/04/23 10:04:27;;;;;;;4.23;3.93;;;13.50;99.90;;;;;;483842;245;28825;-70
2022/04/23 10:06:35;;;;;;;4.83;4.43;;;13.70;99.90;;;;;;483804;245;29212;-74
2022/04/23 10:08:30;;;;;;;4.57;4.17;;;13.80;99.90;;;;;;476983;249;29345;-69
2022/04/23 10:10:31;;;;;;;4.40;4.00;;;13.70;99.90;;;;;;477380;249;29493;-71
2022/04/23 10:12:32;;;;;;;4.80;4.00;;;13.80;99.90;;;;;;477360;249;29296;-70
2022/04/23 10:14:34;;;;;;;5.13;4.63;;;13.70;99.90;;;;;;477435;249;29311;-70
2022/04/23 10:16:36;;;;;;;5.20;4.70;;;13.40;99.90;;;;;;477381;249;29020;-70
2022/04/23 10:18:39;;;;;;;5.90;5.03;;;13.20;99.90;;;;;;477411;249;28875;-69
2022/04/23 10:20:40;;;;;;;5.43;4.87;;;13.10;99.90;;;;;;479032;244;28941;-71
2022/04/23 10:22:39;;;;;;;4.90;4.50;;;13.00;99.90;;;;;;486043;244;28771;-70
2022/04/23 10:24:44;;;;;;;5.37;4.87;;;13.40;99.90;;;;;;486217;244;28851;-69
2022/04/23 10:26:45;;;;;;;4.07;3.77;;;13.60;99.90;;;;;;486207;244;29254;-71
2022/04/23 10:28:48;;;;;;;4.30;4.00;;;13.90;99.90;;;;;;486192;244;29177;-70
2022/04/23 10:30:48;;;;;;;4.50;4.10;;;14.20;99.90;;;;;;486091;244;29220;-70
2022/04/23 10:32:50;;;;;;;5.83;4.67;;;13.80;99.90;;;;;;486168;242;29288;-70
2022/04/23 10:34:50;;;;;;;4.50;4.10;;;13.60;99.90;;;;;;486203;244;28754;-70
2022/04/23 10:36:52;;;;;;;4.50;4.20;;;13.70;99.90;;;;;;486114;244;28878;-71
2022/04/23 10:38:53;;;;;;;5.53;4.67;;;13.70;99.90;;;;;;486197;244;28787;-70
2022/04/23 10:40:55;;;;;;;4.63;4.23;;;13.70;99.90;;;;;;486203;244;28789;-70
2022/04/23 10:42:55;;;;;;;4.90;4.47;;;13.70;99.90;;;;;;486175;244;28755;-70
2022/04/23 10:44:57;;;;;;;4.43;4.10;;;13.50;99.90;;;;;;486189;244;28730;-70
2022/04/23 10:46:58;;;;;;;4.70;4.30;;;13.30;99.90;;;;;;486179;244;28788;-71
2022/04/23 10:48:59;;;;;;;5.00;4.60;;;13.10;99.90;;;;;;486176;244;28793;-70
2022/04/23 10:51:00;;;;;;;3.80;3.50;;;13.30;99.90;;;;;;486175;244;29330;-70
2022/04/23 10:53:02;;;;;;;3.60;3.40;;;13.60;99.90;;;;;;486194;244;29314;-71